sensor_id;sensor_type;location;lat;lon;timestamp;temperature;humidity
49236;DHT22;35067;48.134;8.378;2022-10-16T00:01:18;12.30;99.90
49236;DHT22;35067;48.134;8.378;2022-10-16T00:03:19;12.20;99.90
49236;DHT22;35067;48.134;8.378;2022-10-16T00:05:19;12.10;99.90
49236;DHT22;35067;48.134;8.378;2022-10-16T00:07:20;12.20;99.90
49236;DHT22;35067;48.134;8.378;2022-10-16T00:09:20;12.20;99.90
49236;DHT22;35067;48.134;8.378;2022-10-16T00:11:24;12.20;99.90
49236;DHT22;35067;48.134;8.378;2022-10-16T00:13:24;12.20;99.90
49236;DHT22;35067;48.134;8.378;2022-10-16T00:15:25;12.20;99.90
49236;DHT22;35067;48.134;8.378;2022-10-16T00:17:26;12.30;99.90
49236;DHT22;35067;48.134;8.378;2022-10-16T00:19:26;12.30;99.90
49236;DHT22;35067;48.134;8.378;2022-10-16T00:21:29;12.20;99.90
49236;DHT22;35067;48.134;8.378;2022-10-16T00:23:29;12.20;99.90
49236;DHT22;35067;48.134;8.378;2022-10-16T00:25:31;12.20;99.90
49236;DHT22;35067;48.134;8.378;2022-10-16T00:27:33;12.20;99.90
49236;DHT22;35067;48.134;8.378;2022-10-16T00:29:34;12.20;99.90
49236;DHT22;35067;48.134;8.378;2022-10-16T00:31:35;12.20;99.90
49236;DHT22;35067;48.134;8.378;2022-10-16T00:33:37;12.10;99.90
49236;DHT22;35067;48.134;8.378;2022-10-16T00:35:38;12.00;99.90
49236;DHT22;35067;48.134;8.378;2022-10-16T00:37:38;12.00;99.90
49236;DHT22;35067;48.134;8.378;2022-10-16T00:39:39;12.00;99.90
49236;DHT22;35067;48.134;8.378;2022-10-16T00:41:39;12.10;99.90
49236;DHT22;35067;48.134;8.378;2022-10-16T00:43:41;12.10;99.90
49236;DHT22;35067;48.134;8.378;2022-10-16T00:45:42;12.00;99.90
49236;DHT22;35067;48.134;8.378;2022-10-16T00:47:45;12.00;99.90
49236;DHT22;35067;48.134;8.378;2022-10-16T00:49:51;12.10;99.90
49236;DHT22;35067;48.134;8.378;2022-10-16T00:51:53;12.10;99.90
49236;DHT22;35067;48.134;8.378;2022-10-16T00:53:55;12.10;99.90
49236;DHT22;35067;48.134;8.378;2022-10-16T00:55:55;12.20;99.90
49236;DHT22;35067;48.134;8.378;2022-10-16T00:57:57;12.10;99.90
49236;DHT22;35067;48.134;8.378;2022-10-16T00:59:58;12.20;99.90
49236;DHT22;35067;48.134;8.378;2022-10-16T01:02:00;12.20;99.90
49236;DHT22;35067;48.134;8.378;2022-10-16T01:04:01;12.20;99.90
49236;DHT22;35067;48.134;8.378;2022-10-16T01:08:49;12.00;99.90
49236;DHT22;35067;48.134;8.378;2022-10-16T01:10:59;12.00;99.90
49236;DHT22;35067;48.134;8.378;2022-10-16T01:13:07;12.00;99.90
49236;DHT22;35067;48.134;8.378;2022-10-16T01:15:11;11.90;99.90
49236;DHT22;35067;48.134;8.378;2022-10-16T01:17:18;11.90;99.90
49236;DHT22;35067;48.134;8.378;2022-10-16T01:22:00;12.00;99.90
49236;DHT22;35067;48.134;8.378;2022-10-16T01:26:18;11.90;99.90
49236;DHT22;35067;48.134;8.378;2022-10-16T01:28:30;11.90;99.90
49236;DHT22;35067;48.134;8.378;2022-10-16T01:30:34;11.90;99.90
49236;DHT22;35067;48.134;8.378;2022-10-16T01:32:55;11.90;99.90
49236;DHT22;35067;48.134;8.378;2022-10-16T01:35:17;11.90;99.90
49236;DHT22;35067;48.134;8.378;2022-10-16T01:37:25;11.90;99.90
49236;DHT22;35067;48.134;8.378;2022-10-16T01:39:30;11.90;99.90
49236;DHT22;35067;48.134;8.378;2022-10-16T01:41:36;11.90;99.90
49236;DHT22;35067;48.134;8.378;2022-10-16T01:44:02;12.00;99.90
49236;DHT22;35067;48.134;8.378;2022-10-16T01:46:05;12.00;99.90
49236;DHT22;35067;48.134;8.378;2022-10-16T01:48:07;12.00;99.90
49236;DHT22;35067;48.134;8.378;2022-10-16T01:50:11;12.00;99.90
49236;DHT22;35067;48.134;8.378;2022-10-16T01:52:18;12.10;99.90
49236;DHT22;35067;48.134;8.378;2022-10-16T01:54:22;12.10;99.90
49236;DHT22;35067;48.134;8.378;2022-10-16T01:56:25;12.10;99.90
49236;DHT22;35067;48.134;8.378;2022-10-16T01:58:27;12.10;99.90
49236;DHT22;35067;48.134;8.378;2022-10-16T02:00:31;12.00;99.90
49236;DHT22;35067;48.134;8.378;2022-10-16T02:02:31;12.00;99.90
49236;DHT22;35067;48.134;8.378;2022-10-16T02:04:54;12.00;99.90
49236;DHT22;35067;48.134;8.378;2022-10-16T02:06:58;12.00;99.90
49236;DHT22;35067;48.134;8.378;2022-10-16T02:08:59;11.90;99.90
49236;DHT22;35067;48.134;8.378;2022-10-16T02:11:00;12.00;99.90
49236;DHT22;35067;48.134;8.378;2022-10-16T02:13:23;11.90;99.90
49236;DHT22;35067;48.134;8.378;2022-10-16T02:15:24;11.90;99.90
49236;DHT22;35067;48.134;8.378;2022-10-16T02:17:24;11.90;99.90
49236;DHT22;35067;48.134;8.378;2022-10-16T02:19:25;11.90;99.90
49236;DHT22;35067;48.134;8.378;2022-10-16T02:25:45;11.80;99.90
49236;DHT22;35067;48.134;8.378;2022-10-16T02:29:50;11.80;99.90
49236;DHT22;35067;48.134;8.378;2022-10-16T02:31:58;11.80;99.90
49236;DHT22;35067;48.134;8.378;2022-10-16T02:34:00;11.90;99.90
49236;DHT22;35067;48.134;8.378;2022-10-16T02:36:02;11.70;99.90
49236;DHT22;35067;48.134;8.378;2022-10-16T02:38:03;11.70;99.90
49236;DHT22;35067;48.134;8.378;2022-10-16T02:40:05;11.70;99.90
49236;DHT22;35067;48.134;8.378;2022-10-16T02:42:12;11.70;99.90
49236;DHT22;35067;48.134;8.378;2022-10-16T02:44:13;11.70;99.90
49236;DHT22;35067;48.134;8.378;2022-10-16T02:46:14;11.80;99.90
49236;DHT22;35067;48.134;8.378;2022-10-16T02:48:14;11.70;99.90
49236;DHT22;35067;48.134;8.378;2022-10-16T02:50:15;11.70;99.90
49236;DHT22;35067;48.134;8.378;2022-10-16T02:52:16;11.70;99.90
49236;DHT22;35067;48.134;8.378;2022-10-16T02:54:16;11.70;99.90
49236;DHT22;35067;48.134;8.378;2022-10-16T02:56:17;11.70;99.90
49236;DHT22;35067;48.134;8.378;2022-10-16T02:58:17;11.70;99.90
49236;DHT22;35067;48.134;8.378;2022-10-16T03:00:18;11.70;99.90
49236;DHT22;35067;48.134;8.378;2022-10-16T03:02:19;11.70;99.90
49236;DHT22;35067;48.134;8.378;2022-10-16T03:04:19;11.60;99.90
49236;DHT22;35067;48.134;8.378;2022-10-16T03:06:20;11.60;99.90
49236;DHT22;35067;48.134;8.378;2022-10-16T03:08:20;11.70;99.90
49236;DHT22;35067;48.134;8.378;2022-10-16T03:10:23;11.60;99.90
49236;DHT22;35067;48.134;8.378;2022-10-16T03:12:24;11.60;99.90
49236;DHT22;35067;48.134;8.378;2022-10-16T03:14:25;11.60;99.90
49236;DHT22;35067;48.134;8.378;2022-10-16T03:16:25;11.60;99.90
49236;DHT22;35067;48.134;8.378;2022-10-16T03:18:26;11.70;99.90
49236;DHT22;35067;48.134;8.378;2022-10-16T03:20:26;11.70;99.90
49236;DHT22;35067;48.134;8.378;2022-10-16T03:22:27;11.70;99.90
49236;DHT22;35067;48.134;8.378;2022-10-16T03:24:27;11.70;99.90
49236;DHT22;35067;48.134;8.378;2022-10-16T03:26:28;11.60;99.90
49236;DHT22;35067;48.134;8.378;2022-10-16T03:28:28;11.60;99.90
49236;DHT22;35067;48.134;8.378;2022-10-16T03:30:29;11.70;99.90
49236;DHT22;35067;48.134;8.378;2022-10-16T03:32:30;11.70;99.90
49236;DHT22;35067;48.134;8.378;2022-10-16T03:34:30;11.70;99.90
49236;DHT22;35067;48.134;8.378;2022-10-16T03:36:31;11.70;99.90
49236;DHT22;35067;48.134;8.378;2022-10-16T03:38:31;11.80;99.90
49236;DHT22;35067;48.134;8.378;2022-10-16T03:40:32;11.80;99.90
49236;DHT22;35067;48.134;8.378;2022-10-16T03:42:32;11.80;99.90
49236;DHT22;35067;48.134;8.378;2022-10-16T03:44:33;11.80;99.90
49236;DHT22;35067;48.134;8.378;2022-10-16T03:46:34;11.70;99.90
49236;DHT22;35067;48.134;8.378;2022-10-16T03:48:34;11.70;99.90
49236;DHT22;35067;48.134;8.378;2022-10-16T03:50:35;11.70;99.90
49236;DHT22;35067;48.134;8.378;2022-10-16T03:52:35;11.80;99.90
49236;DHT22;35067;48.134;8.378;2022-10-16T03:54:36;11.80;99.90
49236;DHT22;35067;48.134;8.378;2022-10-16T03:56:36;11.80;99.90
49236;DHT22;35067;48.134;8.378;2022-10-16T03:58:37;11.70;99.90
49236;DHT22;35067;48.134;8.378;2022-10-16T04:00:42;11.70;99.90
49236;DHT22;35067;48.134;8.378;2022-10-16T04:02:42;11.80;99.90
49236;DHT22;35067;48.134;8.378;2022-10-16T04:04:43;11.80;99.90
49236;DHT22;35067;48.134;8.378;2022-10-16T04:06:43;11.90;99.90
49236;DHT22;35067;48.134;8.378;2022-10-16T04:08:44;11.90;99.90
49236;DHT22;35067;48.134;8.378;2022-10-16T04:10:45;11.80;99.90
49236;DHT22;35067;48.134;8.378;2022-10-16T04:12:46;11.80;99.90
49236;DHT22;35067;48.134;8.378;2022-10-16T04:14:46;11.90;99.90
49236;DHT22;35067;48.134;8.378;2022-10-16T04:16:47;11.80;99.90
49236;DHT22;35067;48.134;8.378;2022-10-16T04:18:47;11.90;99.90
49236;DHT22;35067;48.134;8.378;2022-10-16T04:20:48;11.90;99.90
49236;DHT22;35067;48.134;8.378;2022-10-16T04:22:48;11.90;99.90
49236;DHT22;35067;48.134;8.378;2022-10-16T04:24:49;11.90;99.90
49236;DHT22;35067;48.134;8.378;2022-10-16T04:26:50;11.80;99.90
49236;DHT22;35067;48.134;8.378;2022-10-16T04:28:50;11.80;99.90
49236;DHT22;35067;48.134;8.378;2022-10-16T04:30:51;11.80;99.90
49236;DHT22;35067;48.134;8.378;2022-10-16T04:32:52;11.80;99.90
49236;DHT22;35067;48.134;8.378;2022-10-16T04:34:53;11.80;99.90
49236;DHT22;35067;48.134;8.378;2022-10-16T04:36:53;11.80;99.90
49236;DHT22;35067;48.134;8.378;2022-10-16T04:38:54;11.80;99.90
49236;DHT22;35067;48.134;8.378;2022-10-16T04:40:55;11.80;99.90
49236;DHT22;35067;48.134;8.378;2022-10-16T04:42:55;11.80;99.90
49236;DHT22;35067;48.134;8.378;2022-10-16T04:44:56;11.80;99.90
49236;DHT22;35067;48.134;8.378;2022-10-16T04:46:56;11.80;99.90
49236;DHT22;35067;48.134;8.378;2022-10-16T04:48:57;11.80;99.90
49236;DHT22;35067;48.134;8.378;2022-10-16T04:50:58;11.80;99.90
49236;DHT22;35067;48.134;8.378;2022-10-16T04:52:58;11.80;99.90
49236;DHT22;35067;48.134;8.378;2022-10-16T04:54:59;11.80;99.90
49236;DHT22;35067;48.134;8.378;2022-10-16T04:57:02;11.80;99.90
49236;DHT22;35067;48.134;8.378;2022-10-16T04:59:05;11.80;99.90
49236;DHT22;35067;48.134;8.378;2022-10-16T05:01:05;11.80;99.90
49236;DHT22;35067;48.134;8.378;2022-10-16T05:03:06;11.80;99.90
49236;DHT22;35067;48.134;8.378;2022-10-16T05:05:09;11.80;99.90
49236;DHT22;35067;48.134;8.378;2022-10-16T05:07:09;11.90;99.90
49236;DHT22;35067;48.134;8.378;2022-10-16T05:09:10;11.90;99.90
49236;DHT22;35067;48.134;8.378;2022-10-16T05:11:11;11.90;99.90
49236;DHT22;35067;48.134;8.378;2022-10-16T05:13:11;11.80;99.90
49236;DHT22;35067;48.134;8.378;2022-10-16T05:15:12;11.80;99.90
49236;DHT22;35067;48.134;8.378;2022-10-16T05:17:13;11.80;99.90
49236;DHT22;35067;48.134;8.378;2022-10-16T05:19:13;11.80;99.90
49236;DHT22;35067;48.134;8.378;2022-10-16T05:21:14;11.80;99.90
49236;DHT22;35067;48.134;8.378;2022-10-16T05:23:14;11.90;99.90
49236;DHT22;35067;48.134;8.378;2022-10-16T05:25:15;11.80;99.90
49236;DHT22;35067;48.134;8.378;2022-10-16T05:27:16;11.90;99.90
49236;DHT22;35067;48.134;8.378;2022-10-16T05:29:20;11.90;99.90
49236;DHT22;35067;48.134;8.378;2022-10-16T05:31:21;11.80;99.90
49236;DHT22;35067;48.134;8.378;2022-10-16T05:33:22;11.80;99.90
49236;DHT22;35067;48.134;8.378;2022-10-16T05:35:23;11.80;99.90
49236;DHT22;35067;48.134;8.378;2022-10-16T05:37:23;11.80;99.90
49236;DHT22;35067;48.134;8.378;2022-10-16T05:39:24;11.70;99.90
49236;DHT22;35067;48.134;8.378;2022-10-16T05:41:24;11.70;99.90
49236;DHT22;35067;48.134;8.378;2022-10-16T05:43:27;11.60;99.90
49236;DHT22;35067;48.134;8.378;2022-10-16T05:45:28;11.60;99.90
49236;DHT22;35067;48.134;8.378;2022-10-16T05:47:29;11.70;99.90
49236;DHT22;35067;48.134;8.378;2022-10-16T05:49:29;11.70;99.90
49236;DHT22;35067;48.134;8.378;2022-10-16T05:51:30;11.60;99.90
49236;DHT22;35067;48.134;8.378;2022-10-16T05:53:33;11.70;99.90
49236;DHT22;35067;48.134;8.378;2022-10-16T05:55:33;11.70;99.90
49236;DHT22;35067;48.134;8.378;2022-10-16T05:57:34;11.80;99.90
49236;DHT22;35067;48.134;8.378;2022-10-16T05:59:34;11.90;99.90
49236;DHT22;35067;48.134;8.378;2022-10-16T06:01:35;11.90;99.90
49236;DHT22;35067;48.134;8.378;2022-10-16T06:03:36;12.00;99.90
49236;DHT22;35067;48.134;8.378;2022-10-16T06:05:37;12.00;99.90
49236;DHT22;35067;48.134;8.378;2022-10-16T06:07:37;12.10;99.90
49236;DHT22;35067;48.134;8.378;2022-10-16T06:09:38;12.20;99.90
49236;DHT22;35067;48.134;8.378;2022-10-16T06:11:39;12.20;99.90
49236;DHT22;35067;48.134;8.378;2022-10-16T06:13:39;12.30;99.90
49236;DHT22;35067;48.134;8.378;2022-10-16T06:15:42;12.40;99.90
49236;DHT22;35067;48.134;8.378;2022-10-16T06:17:43;12.50;99.90
49236;DHT22;35067;48.134;8.378;2022-10-16T06:19:43;12.60;99.90
49236;DHT22;35067;48.134;8.378;2022-10-16T06:21:44;12.70;99.90
49236;DHT22;35067;48.134;8.378;2022-10-16T06:23:46;12.70;99.90
49236;DHT22;35067;48.134;8.378;2022-10-16T06:25:46;12.80;99.90
49236;DHT22;35067;48.134;8.378;2022-10-16T06:27:47;12.90;99.90
49236;DHT22;35067;48.134;8.378;2022-10-16T06:29:47;12.90;99.90
49236;DHT22;35067;48.134;8.378;2022-10-16T06:31:48;13.00;99.90
49236;DHT22;35067;48.134;8.378;2022-10-16T06:33:51;13.20;99.90
49236;DHT22;35067;48.134;8.378;2022-10-16T06:35:52;13.30;99.90
49236;DHT22;35067;48.134;8.378;2022-10-16T06:37:53;13.50;99.90
49236;DHT22;35067;48.134;8.378;2022-10-16T06:39:53;13.60;99.90
49236;DHT22;35067;48.134;8.378;2022-10-16T06:41:54;13.70;99.90
49236;DHT22;35067;48.134;8.378;2022-10-16T06:43:54;13.80;99.90
49236;DHT22;35067;48.134;8.378;2022-10-16T06:45:56;14.00;99.90
49236;DHT22;35067;48.134;8.378;2022-10-16T06:47:57;14.20;99.90
49236;DHT22;35067;48.134;8.378;2022-10-16T06:49:57;14.20;99.90
49236;DHT22;35067;48.134;8.378;2022-10-16T06:51:58;14.30;99.90
49236;DHT22;35067;48.134;8.378;2022-10-16T06:53:59;14.20;99.90
49236;DHT22;35067;48.134;8.378;2022-10-16T06:56:13;14.20;99.90
49236;DHT22;35067;48.134;8.378;2022-10-16T06:58:14;14.20;99.90
49236;DHT22;35067;48.134;8.378;2022-10-16T07:00:15;14.30;99.90
49236;DHT22;35067;48.134;8.378;2022-10-16T07:02:15;14.30;99.90
49236;DHT22;35067;48.134;8.378;2022-10-16T07:04:16;14.40;99.90
49236;DHT22;35067;48.134;8.378;2022-10-16T07:06:18;14.50;99.90
49236;DHT22;35067;48.134;8.378;2022-10-16T07:08:19;14.40;99.90
49236;DHT22;35067;48.134;8.378;2022-10-16T07:10:20;14.40;99.90
49236;DHT22;35067;48.134;8.378;2022-10-16T07:12:24;14.50;99.90
49236;DHT22;35067;48.134;8.378;2022-10-16T07:14:24;14.50;99.90
49236;DHT22;35067;48.134;8.378;2022-10-16T07:16:27;14.70;99.90
49236;DHT22;35067;48.134;8.378;2022-10-16T07:18:28;14.90;99.90
49236;DHT22;35067;48.134;8.378;2022-10-16T07:20:29;15.10;99.90
49236;DHT22;35067;48.134;8.378;2022-10-16T07:22:29;15.20;99.90
49236;DHT22;35067;48.134;8.378;2022-10-16T07:24:30;15.30;99.90
49236;DHT22;35067;48.134;8.378;2022-10-16T07:26:33;15.40;99.90
49236;DHT22;35067;48.134;8.378;2022-10-16T07:28:35;15.60;99.60
49236;DHT22;35067;48.134;8.378;2022-10-16T07:30:36;15.60;99.10
49236;DHT22;35067;48.134;8.378;2022-10-16T07:32:37;15.60;99.10
49236;DHT22;35067;48.134;8.378;2022-10-16T07:34:38;15.70;98.40
49236;DHT22;35067;48.134;8.378;2022-10-16T07:36:38;15.80;98.70
49236;DHT22;35067;48.134;8.378;2022-10-16T07:38:39;15.90;97.90
49236;DHT22;35067;48.134;8.378;2022-10-16T07:40:40;15.90;97.60
49236;DHT22;35067;48.134;8.378;2022-10-16T07:42:41;15.90;97.10
49236;DHT22;35067;48.134;8.378;2022-10-16T07:44:41;15.90;96.80
49236;DHT22;35067;48.134;8.378;2022-10-16T07:46:42;16.00;96.50
49236;DHT22;35067;48.134;8.378;2022-10-16T07:48:43;16.10;96.10
49236;DHT22;35067;48.134;8.378;2022-10-16T07:50:48;16.10;96.70
49236;DHT22;35067;48.134;8.378;2022-10-16T07:52:49;16.50;94.70
49236;DHT22;35067;48.134;8.378;2022-10-16T07:54:49;16.70;93.40
49236;DHT22;35067;48.134;8.378;2022-10-16T07:56:50;16.80;92.70
49236;DHT22;35067;48.134;8.378;2022-10-16T07:58:51;17.00;92.60
49236;DHT22;35067;48.134;8.378;2022-10-16T08:00:52;16.80;92.60
49236;DHT22;35067;48.134;8.378;2022-10-16T08:02:53;16.90;93.00
49236;DHT22;35067;48.134;8.378;2022-10-16T08:04:53;17.00;92.90
49236;DHT22;35067;48.134;8.378;2022-10-16T08:06:54;17.10;92.50
49236;DHT22;35067;48.134;8.378;2022-10-16T08:08:56;17.20;91.50
49236;DHT22;35067;48.134;8.378;2022-10-16T08:10:56;17.20;91.70
49236;DHT22;35067;48.134;8.378;2022-10-16T08:12:57;17.20;91.40
49236;DHT22;35067;48.134;8.378;2022-10-16T08:14:58;17.40;91.30
49236;DHT22;35067;48.134;8.378;2022-10-16T08:16:59;17.40;90.10
49236;DHT22;35067;48.134;8.378;2022-10-16T08:19:02;17.50;90.20
49236;DHT22;35067;48.134;8.378;2022-10-16T08:21:04;17.60;85.50
49236;DHT22;35067;48.134;8.378;2022-10-16T08:23:06;17.50;84.80
49236;DHT22;35067;48.134;8.378;2022-10-16T08:25:07;17.40;86.40
49236;DHT22;35067;48.134;8.378;2022-10-16T08:27:08;17.40;85.70
49236;DHT22;35067;48.134;8.378;2022-10-16T08:29:09;17.40;84.60
49236;DHT22;35067;48.134;8.378;2022-10-16T08:31:12;17.50;83.60
49236;DHT22;35067;48.134;8.378;2022-10-16T08:33:15;17.50;83.40
49236;DHT22;35067;48.134;8.378;2022-10-16T08:35:16;17.60;83.20
49236;DHT22;35067;48.134;8.378;2022-10-16T08:37:17;17.70;83.60
49236;DHT22;35067;48.134;8.378;2022-10-16T08:39:17;17.80;81.70
49236;DHT22;35067;48.134;8.378;2022-10-16T08:41:34;18.00;81.90
49236;DHT22;35067;48.134;8.378;2022-10-16T08:48:57;18.20;76.90
49236;DHT22;35067;48.134;8.378;2022-10-16T08:51:02;18.10;75.70
49236;DHT22;35067;48.134;8.378;2022-10-16T08:53:04;18.20;77.40
49236;DHT22;35067;48.134;8.378;2022-10-16T08:55:09;18.50;74.90
49236;DHT22;35067;48.134;8.378;2022-10-16T08:57:21;18.40;76.80
49236;DHT22;35067;48.134;8.378;2022-10-16T08:59:23;18.30;75.70
49236;DHT22;35067;48.134;8.378;2022-10-16T09:01:32;18.30;74.60
49236;DHT22;35067;48.134;8.378;2022-10-16T09:11:23;18.20;76.00
49236;DHT22;35067;48.134;8.378;2022-10-16T09:13:47;18.30;75.00
49236;DHT22;35067;48.134;8.378;2022-10-16T09:18:41;18.20;75.40
49236;DHT22;35067;48.134;8.378;2022-10-16T09:23:14;18.60;72.30
49236;DHT22;35067;48.134;8.378;2022-10-16T09:25:20;18.70;73.00
49236;DHT22;35067;48.134;8.378;2022-10-16T09:27:22;18.60;72.70
49236;DHT22;35067;48.134;8.378;2022-10-16T09:29:23;18.30;77.30
49236;DHT22;35067;48.134;8.378;2022-10-16T09:31:25;18.30;80.60
49236;DHT22;35067;48.134;8.378;2022-10-16T09:33:35;18.40;77.50
49236;DHT22;35067;48.134;8.378;2022-10-16T09:35:51;18.20;78.10
49236;DHT22;35067;48.134;8.378;2022-10-16T09:37:54;18.20;75.60
49236;DHT22;35067;48.134;8.378;2022-10-16T09:39:55;18.10;77.60
49236;DHT22;35067;48.134;8.378;2022-10-16T09:41:56;18.00;78.00
49236;DHT22;35067;48.134;8.378;2022-10-16T09:43:59;18.30;76.90
49236;DHT22;35067;48.134;8.378;2022-10-16T09:46:06;18.60;76.00
49236;DHT22;35067;48.134;8.378;2022-10-16T09:48:12;18.90;74.90
49236;DHT22;35067;48.134;8.378;2022-10-16T09:50:28;19.00;75.60
49236;DHT22;35067;48.134;8.378;2022-10-16T09:52:31;19.10;72.40
49236;DHT22;35067;48.134;8.378;2022-10-16T09:54:33;19.10;71.20
49236;DHT22;35067;48.134;8.378;2022-10-16T09:56:35;19.00;74.20
49236;DHT22;35067;48.134;8.378;2022-10-16T09:58:36;19.30;76.90
49236;DHT22;35067;48.134;8.378;2022-10-16T10:00:41;19.90;80.10
49236;DHT22;35067;48.134;8.378;2022-10-16T10:02:43;20.30;83.50
49236;DHT22;35067;48.134;8.378;2022-10-16T10:04:53;20.90;79.30
49236;DHT22;35067;48.134;8.378;2022-10-16T10:06:58;21.90;74.50
49236;DHT22;35067;48.134;8.378;2022-10-16T10:16:36;24.40;64.20
49236;DHT22;35067;48.134;8.378;2022-10-16T10:18:37;23.40;49.50
49236;DHT22;35067;48.134;8.378;2022-10-16T10:20:38;23.50;55.30
49236;DHT22;35067;48.134;8.378;2022-10-16T10:22:42;23.40;52.30
49236;DHT22;35067;48.134;8.378;2022-10-16T10:24:55;23.60;58.90
49236;DHT22;35067;48.134;8.378;2022-10-16T10:27:08;24.70;55.30
49236;DHT22;35067;48.134;8.378;2022-10-16T10:29:19;24.60;55.00
49236;DHT22;35067;48.134;8.378;2022-10-16T10:36:39;25.60;42.30
49236;DHT22;35067;48.134;8.378;2022-10-16T10:52:37;26.00;39.00
49236;DHT22;35067;48.134;8.378;2022-10-16T10:57:30;26.40;38.80
49236;DHT22;35067;48.134;8.378;2022-10-16T11:02:14;27.40;36.90
49236;DHT22;35067;48.134;8.378;2022-10-16T11:06:40;26.00;37.70
49236;DHT22;35067;48.134;8.378;2022-10-16T11:08:59;25.70;38.20
49236;DHT22;35067;48.134;8.378;2022-10-16T11:11:16;25.70;38.60
49236;DHT22;35067;48.134;8.378;2022-10-16T11:16:00;26.50;38.40
49236;DHT22;35067;48.134;8.378;2022-10-16T11:18:08;27.80;36.80
49236;DHT22;35067;48.134;8.378;2022-10-16T11:24:40;26.50;35.70
49236;DHT22;35067;48.134;8.378;2022-10-16T11:26:46;27.40;37.30
49236;DHT22;35067;48.134;8.378;2022-10-16T11:28:53;28.40;34.00
49236;DHT22;35067;48.134;8.378;2022-10-16T11:31:08;28.90;33.70
49236;DHT22;35067;48.134;8.378;2022-10-16T11:38:41;30.90;31.60
49236;DHT22;35067;48.134;8.378;2022-10-16T11:40:45;31.20;29.00
49236;DHT22;35067;48.134;8.378;2022-10-16T11:42:57;31.40;29.90
49236;DHT22;35067;48.134;8.378;2022-10-16T11:50:43;27.90;34.30
49236;DHT22;35067;48.134;8.378;2022-10-16T11:55:17;28.80;32.70
49236;DHT22;35067;48.134;8.378;2022-10-16T11:57:27;29.40;31.70
49236;DHT22;35067;48.134;8.378;2022-10-16T12:06:40;30.70;29.20
49236;DHT22;35067;48.134;8.378;2022-10-16T12:09:05;30.90;28.50
49236;DHT22;35067;48.134;8.378;2022-10-16T12:11:09;30.90;28.70
49236;DHT22;35067;48.134;8.378;2022-10-16T12:13:38;30.80;33.70
49236;DHT22;35067;48.134;8.378;2022-10-16T12:15:39;29.80;37.20
49236;DHT22;35067;48.134;8.378;2022-10-16T12:17:40;29.30;39.30
49236;DHT22;35067;48.134;8.378;2022-10-16T12:19:41;29.50;38.40
49236;DHT22;35067;48.134;8.378;2022-10-16T12:21:43;30.00;38.60
49236;DHT22;35067;48.134;8.378;2022-10-16T12:23:50;30.00;38.40
49236;DHT22;35067;48.134;8.378;2022-10-16T12:25:56;30.00;37.40
49236;DHT22;35067;48.134;8.378;2022-10-16T12:30:22;30.40;38.30
49236;DHT22;35067;48.134;8.378;2022-10-16T12:32:37;29.90;39.50
49236;DHT22;35067;48.134;8.378;2022-10-16T12:34:42;29.40;40.60
49236;DHT22;35067;48.134;8.378;2022-10-16T12:36:43;29.40;40.60
49236;DHT22;35067;48.134;8.378;2022-10-16T12:38:49;29.80;38.70
49236;DHT22;35067;48.134;8.378;2022-10-16T12:41:00;28.30;42.20
49236;DHT22;35067;48.134;8.378;2022-10-16T12:43:23;27.60;44.60
49236;DHT22;35067;48.134;8.378;2022-10-16T12:45:33;29.10;41.10
49236;DHT22;35067;48.134;8.378;2022-10-16T12:49:38;28.90;42.10
49236;DHT22;35067;48.134;8.378;2022-10-16T12:51:49;28.90;41.10
49236;DHT22;35067;48.134;8.378;2022-10-16T12:56:22;28.60;40.90
49236;DHT22;35067;48.134;8.378;2022-10-16T13:00:57;28.10;42.10
49236;DHT22;35067;48.134;8.378;2022-10-16T13:05:38;27.50;43.60
49236;DHT22;35067;48.134;8.378;2022-10-16T13:14:02;28.10;43.00
49236;DHT22;35067;48.134;8.378;2022-10-16T13:16:56;28.60;41.30
49236;DHT22;35067;48.134;8.378;2022-10-16T13:19:33;30.40;38.30
49236;DHT22;35067;48.134;8.378;2022-10-16T13:21:57;28.80;39.70
49236;DHT22;35067;48.134;8.378;2022-10-16T13:28:33;27.40;43.80
49236;DHT22;35067;48.134;8.378;2022-10-16T13:30:42;27.20;44.20
49236;DHT22;35067;48.134;8.378;2022-10-16T13:32:48;27.10;44.60
49236;DHT22;35067;48.134;8.378;2022-10-16T13:34:50;28.90;41.40
49236;DHT22;35067;48.134;8.378;2022-10-16T13:36:52;29.60;38.90
49236;DHT22;35067;48.134;8.378;2022-10-16T13:41:21;30.70;36.60
49236;DHT22;35067;48.134;8.378;2022-10-16T13:43:31;29.90;38.10
49236;DHT22;35067;48.134;8.378;2022-10-16T13:45:34;29.30;39.50
49236;DHT22;35067;48.134;8.378;2022-10-16T13:47:35;29.70;38.30
49236;DHT22;35067;48.134;8.378;2022-10-16T13:49:36;30.10;37.10
49236;DHT22;35067;48.134;8.378;2022-10-16T13:51:36;28.60;39.20
49236;DHT22;35067;48.134;8.378;2022-10-16T13:53:37;27.60;40.40
49236;DHT22;35067;48.134;8.378;2022-10-16T13:55:38;27.00;42.00
49236;DHT22;35067;48.134;8.378;2022-10-16T13:57:39;25.60;45.50
49236;DHT22;35067;48.134;8.378;2022-10-16T13:59:40;25.80;45.10
49236;DHT22;35067;48.134;8.378;2022-10-16T14:01:43;26.70;46.10
49236;DHT22;35067;48.134;8.378;2022-10-16T14:03:45;27.30;42.30
49236;DHT22;35067;48.134;8.378;2022-10-16T14:05:55;28.50;40.20
49236;DHT22;35067;48.134;8.378;2022-10-16T14:07:57;29.30;39.30
49236;DHT22;35067;48.134;8.378;2022-10-16T14:10:03;30.80;35.60
49236;DHT22;35067;48.134;8.378;2022-10-16T14:12:19;30.40;35.30
49236;DHT22;35067;48.134;8.378;2022-10-16T14:14:20;29.60;36.30
49236;DHT22;35067;48.134;8.378;2022-10-16T14:16:23;28.70;38.60
49236;DHT22;35067;48.134;8.378;2022-10-16T14:18:27;28.50;38.30
49236;DHT22;35067;48.134;8.378;2022-10-16T14:20:31;29.00;39.40
49236;DHT22;35067;48.134;8.378;2022-10-16T14:22:41;29.60;36.80
49236;DHT22;35067;48.134;8.378;2022-10-16T14:24:42;28.50;38.30
49236;DHT22;35067;48.134;8.378;2022-10-16T14:26:44;27.30;39.60
49236;DHT22;35067;48.134;8.378;2022-10-16T14:28:46;27.00;41.40
49236;DHT22;35067;48.134;8.378;2022-10-16T14:30:59;28.10;40.20
49236;DHT22;35067;48.134;8.378;2022-10-16T14:33:03;28.90;37.90
49236;DHT22;35067;48.134;8.378;2022-10-16T14:35:26;29.30;37.70
49236;DHT22;35067;48.134;8.378;2022-10-16T14:37:29;28.10;38.20
49236;DHT22;35067;48.134;8.378;2022-10-16T14:39:30;27.00;40.00
49236;DHT22;35067;48.134;8.378;2022-10-16T14:41:32;26.30;40.90
49236;DHT22;35067;48.134;8.378;2022-10-16T14:43:43;26.50;41.00
49236;DHT22;35067;48.134;8.378;2022-10-16T14:45:54;26.80;41.20
49236;DHT22;35067;48.134;8.378;2022-10-16T14:48:02;26.10;42.70
49236;DHT22;35067;48.134;8.378;2022-10-16T14:50:08;25.70;44.20
49236;DHT22;35067;48.134;8.378;2022-10-16T14:52:11;26.10;43.30
49236;DHT22;35067;48.134;8.378;2022-10-16T14:54:14;26.50;42.40
49236;DHT22;35067;48.134;8.378;2022-10-16T14:56:19;27.70;39.80
49236;DHT22;35067;48.134;8.378;2022-10-16T14:58:24;28.40;37.60
49236;DHT22;35067;48.134;8.378;2022-10-16T15:00:26;28.10;37.00